Time;durP1;ratioP1;P1;durP2;ratioP2;P2;SDS_P1;SDS_P2;PMS_P1;PMS_P2;Temp;Humidity;BMP_temperature;BMP_pressure;BME280_temperature;BME280_humidity;BME280_pressure;Samples;Min_cycle;Max_cycle;Signal;HPM_P1;HPM_P2
2021/12/12 00:00:44;;;;;;;10.05;4.65;;;;;;;4.26;75.77;100124.06;4964610;28;20066;-80
2021/12/12 00:03:20;;;;;;;10.88;4.82;;;;;;;4.23;75.72;100129.31;4995246;28;20039;-78
2021/12/12 00:05:53;;;;;;;8.90;4.07;;;;;;;4.25;75.69;100136.22;4981404;28;20030;-79
2021/12/12 00:08:20;;;;;;;9.48;4.00;;;;;;;4.28;75.65;100127.47;4980338;28;20475;-79
2021/12/12 00:10:49;;;;;;;9.82;3.85;;;;;;;4.32;75.87;100136.13;4968634;28;20030;-79
2021/12/12 00:13:20;;;;;;;11.65;3.90;;;;;;;4.32;75.86;100130.91;4987955;28;20043;-78
2021/12/12 00:15:46;;;;;;;10.90;4.10;;;;;;;4.35;75.93;100142.16;4987277;28;20058;-78
2021/12/12 00:18:11;;;;;;;15.30;4.15;;;;;;;4.37;75.65;100140.38;4989215;28;20038;-79
2021/12/12 00:20:37;;;;;;;10.95;5.75;;;;;;;4.39;75.46;100138.59;4991102;28;20035;-78
2021/12/12 00:23:05;;;;;;;12.25;4.13;;;;;;;4.41;75.60;100131.59;4988983;28;20030;-78
2021/12/12 00:25:34;;;;;;;13.40;3.80;;;;;;;4.45;75.62;100135.88;4981263;28;20030;-79
2021/12/12 00:28:00;;;;;;;8.07;3.88;;;;;;;4.46;75.86;100127.16;4978797;28;20015;-77
2021/12/12 00:30:27;;;;;;;8.90;4.13;;;;;;;4.48;75.77;100132.38;4983231;28;20053;-79
2021/12/12 00:32:53;;;;;;;8.50;3.63;;;;;;;4.52;75.27;100128.78;4960394;29;20062;-78
2021/12/12 00:35:19;;;;;;;11.88;4.80;;;;;;;4.55;75.79;100127.88;4938758;29;20039;-80
2021/12/12 00:37:47;;;;;;;13.75;4.95;;;;;;;4.57;75.90;100120.88;4955760;29;20035;-78
2021/12/12 00:40:26;;;;;;;7.07;4.65;;;;;;;4.59;75.42;100119.94;4957278;29;20039;-81
2021/12/12 00:42:56;;;;;;;13.13;4.72;;;;;;;4.61;75.34;100115.56;4926204;29;20039;-79
2021/12/12 00:45:22;;;;;;;13.77;4.50;;;;;;;4.63;75.76;100123.38;4969299;29;20107;-81
2021/12/12 00:47:48;;;;;;;7.70;4.40;;;;;;;4.64;75.38;100114.63;4951713;29;20071;-79
2021/12/12 00:50:28;;;;;;;16.08;4.75;;;;;;;4.69;75.32;100125.84;4968101;29;20047;-79
2021/12/12 00:52:54;;;;;;;11.20;4.45;;;;;;;4.68;75.94;100116.31;4963829;29;20042;-79
2021/12/12 00:55:21;;;;;;;9.15;3.83;;;;;;;4.72;75.67;100120.56;4943797;29;20136;-79
2021/12/12 00:57:51;;;;;;;10.68;4.38;;;;;;;4.72;75.65;100116.19;4960307;29;20029;-79
2021/12/12 01:00:19;;;;;;;11.77;4.65;;;;;;;4.76;75.86;100116.16;4961552;29;20039;-80
2021/12/12 01:02:45;;;;;;;13.10;4.32;;;;;;;4.80;75.83;100110.84;4962134;29;20118;-78
2021/12/12 01:05:12;;;;;;;11.75;4.72;;;;;;;4.81;75.84;100106.47;4963797;29;20083;-77
2021/12/12 01:07:39;;;;;;;15.18;4.75;;;;;;;4.84;75.80;100109.88;4966897;29;20102;-79
2021/12/12 01:10:24;;;;;;;14.98;5.70;;;;;;;4.87;75.57;100099.38;4967461;29;20036;-78
2021/12/12 01:12:50;;;;;;;15.05;5.18;;;;;;;4.90;75.47;100104.53;4952130;29;20043;-80
2021/12/12 01:15:31;;;;;;;15.20;4.88;;;;;;;4.93;75.49;100099.22;4933707;29;20058;-76
2021/12/12 01:18:01;;;;;;;17.15;4.43;;;;;;;4.96;75.67;100106.16;4957980;29;20418;-77
2021/12/12 01:20:32;;;;;;;14.85;3.95;;;;;;;4.97;75.71;100099.16;4958251;29;20043;-77
2021/12/12 01:23:05;;;;;;;11.85;4.75;;;;;;;5.02;75.40;100110.38;4953591;29;20023;-79
2021/12/12 01:25:35;;;;;;;15.93;4.28;;;;;;;5.05;75.90;100120.78;4957412;29;20043;-77
2021/12/12 01:28:03;;;;;;;9.60;4.40;;;;;;;5.09;75.99;100114.56;4957815;29;20039;-76
2021/12/12 01:30:30;;;;;;;11.18;4.30;;;;;;;5.12;76.09;100118.00;4974862;28;20020;-78
2021/12/12 01:32:57;;;;;;;12.75;3.67;;;;;;;5.14;75.90;100116.22;4958242;29;20035;-78
2021/12/12 01:35:24;;;;;;;11.80;4.35;;;;;;;5.20;75.91;100110.00;4968278;28;20118;-80
2021/12/12 01:40:47;;;;;;;12.15;4.05;;;;;;;5.21;75.94;100095.16;4968867;29;20050;-78
2021/12/12 01:43:38;;;;;;;9.23;3.90;;;;;;;5.23;75.79;100101.22;4974038;28;20046;-78
2021/12/12 01:46:26;;;;;;;12.75;5.55;;;;;;;5.25;75.81;100095.06;4990461;28;20073;-78
2021/12/12 01:48:57;;;;;;;7.10;3.95;;;;;;;5.27;76.05;100103.72;4974821;28;20031;-78
2021/12/12 01:51:23;;;;;;;12.68;5.10;;;;;;;5.29;75.75;100095.84;4950650;29;20098;-78
2021/12/12 01:53:53;;;;;;;16.60;5.30;;;;;;;5.28;75.47;100084.53;4974872;28;20038;-77
2021/12/12 01:56:22;;;;;;;14.63;4.22;;;;;;;5.31;75.74;100083.59;4980959;28;20038;-77
2021/12/12 01:58:52;;;;;;;11.25;4.43;;;;;;;5.32;75.78;100096.66;4976781;28;20506;-80
2021/12/12 02:01:28;;;;;;;24.13;5.63;;;;;;;5.35;75.58;100093.09;4944589;28;20055;-78
2021/12/12 02:04:00;;;;;;;19.83;5.55;;;;;;;5.38;75.31;100090.41;4974891;28;20522;-78
2021/12/12 02:06:26;;;;;;;11.63;4.70;;;;;;;5.40;75.19;100093.00;4964718;28;20113;-78
2021/12/12 02:08:54;;;;;;;14.05;5.50;;;;;;;5.44;75.09;100084.16;4971771;28;20031;-77
2021/12/12 02:11:23;;;;;;;20.77;7.75;;;;;;;5.43;74.96;100088.53;4950513;28;20046;-79
2021/12/12 02:13:52;;;;;;;13.02;5.28;;;;;;;5.44;74.93;100077.22;4970560;28;20391;-79
2021/12/12 02:16:20;;;;;;;11.02;4.53;;;;;;;5.42;74.46;100072.91;4974129;28;20037;-76
2021/12/12 02:18:50;;;;;;;17.30;5.32;;;;;;;5.44;74.44;100077.22;4972160;28;20066;-78
2021/12/12 02:21:25;;;;;;;11.90;4.07;;;;;;;5.45;74.31;100068.47;4976062;28;20045;-78
2021/12/12 02:37:26;;;;;;;9.70;4.70;;;;;;;5.53;72.83;100060.44;4940689;29;20062;-78
2021/12/12 02:39:52;;;;;;;9.15;4.35;;;;;;;5.57;72.83;100059.47;4955732;29;20031;-78
2021/12/12 02:42:21;;;;;;;11.63;4.57;;;;;;;5.58;72.08;100059.41;4956224;29;20035;-77
2021/12/12 02:44:56;;;;;;;15.10;3.75;;;;;;;5.60;72.06;100057.63;4952980;29;20031;-77
2021/12/12 02:47:31;;;;;;;18.85;5.35;;;;;;;5.60;71.79;100052.38;4936500;28;20041;-76
2021/12/12 02:50:08;;;;;;;14.60;4.20;;;;;;;5.65;71.59;100051.44;4961215;28;20050;-76
2021/12/12 02:52:35;;;;;;;11.43;3.97;;;;;;;5.68;71.28;100046.13;4961326;28;20072;-76
2021/12/12 02:55:18;;;;;;;10.95;5.82;;;;;;;5.73;71.08;100052.09;4962453;28;20046;-77
2021/12/12 02:57:43;;;;;;;15.13;4.72;;;;;;;5.71;70.77;100039.06;4956292;28;20487;-77
2021/12/12 03:00:13;;;;;;;10.25;4.05;;;;;;;5.74;70.56;100045.97;4952095;28;20118;-77
2021/12/12 03:02:45;;;;;;;10.32;4.95;;;;;;;5.73;70.66;100045.09;4952660;28;20491;-77
2021/12/12 03:05:15;;;;;;;11.27;3.70;;;;;;;5.73;70.99;100039.84;4952041;28;20051;-77
2021/12/12 03:07:42;;;;;;;14.02;4.40;;;;;;;5.77;70.67;100036.28;4951847;28;20035;-76
2021/12/12 03:10:12;;;;;;;11.60;4.45;;;;;;;5.84;70.62;100051.84;4952517;28;20500;-76
2021/12/12 03:12:38;;;;;;;18.38;4.50;;;;;;;5.84;70.59;100042.22;4952934;28;20039;-77
2021/12/12 03:15:08;;;;;;;9.55;5.22;;;;;;;5.84;70.68;100046.59;4951735;28;20098;-76
2021/12/12 03:17:35;;;;;;;8.90;3.42;;;;;;;5.82;71.42;100050.09;4953034;28;20106;-76
2021/12/12 03:20:09;;;;;;;7.07;3.72;;;;;;;5.82;71.72;100054.47;4953906;28;20093;-77
2021/12/12 03:22:35;;;;;;;13.07;4.28;;;;;;;5.81;71.87;100042.31;4951504;28;20038;-78
2021/12/12 03:25:00;;;;;;;7.22;3.35;;;;;;;5.78;72.34;100053.72;4959586;28;20035;-77
2021/12/12 03:27:26;;;;;;;13.93;4.70;;;;;;;5.79;72.74;100050.19;4987550;28;20042;-78
2021/12/12 03:29:52;;;;;;;9.80;3.65;;;;;;;5.77;72.94;100053.72;4972468;28;20487;-77
2021/12/12 03:32:21;;;;;;;10.98;4.20;;;;;;;5.76;73.27;100055.50;4972152;28;20043;-77
2021/12/12 03:34:52;;;;;;;12.57;5.35;;;;;;;5.77;73.44;100062.44;4973795;28;20099;-78
2021/12/12 03:37:23;;;;;;;12.35;5.32;;;;;;;5.74;73.69;100062.53;4974727;28;20051;-79
2021/12/12 03:39:52;;;;;;;9.60;3.72;;;;;;;5.72;74.54;100047.75;4964521;28;20031;-78
2021/12/12 03:42:22;;;;;;;10.40;4.75;;;;;;;5.72;75.24;100053.00;4958809;28;20046;-80
2021/12/12 03:44:48;;;;;;;10.82;4.30;;;;;;;5.65;75.54;100044.44;4968302;28;20046;-78
2021/12/12 03:47:18;;;;;;;17.30;4.90;;;;;;;5.62;75.92;100043.66;4967124;29;20035;-76
2021/12/12 03:49:43;;;;;;;6.93;3.75;;;;;;;5.60;76.00;100047.16;4969974;29;20062;-77
2021/12/12 03:52:11;;;;;;;16.45;4.97;;;;;;;5.58;76.46;100040.25;4949771;29;20051;-79
2021/12/12 03:54:38;;;;;;;10.80;4.32;;;;;;;5.58;77.11;100042.88;4945202;29;20090;-78
2021/12/12 03:57:06;;;;;;;12.52;4.38;;;;;;;5.60;76.62;100043.69;4954789;29;20042;-78
2021/12/12 03:59:32;;;;;;;9.70;3.63;;;;;;;5.64;77.04;100036.66;4960134;29;20043;-81
2021/12/12 04:01:58;;;;;;;15.43;4.35;;;;;;;5.64;77.25;100042.72;4942156;28;20034;-82
2021/12/12 04:04:31;;;;;;;8.75;4.40;;;;;;;5.67;77.15;100040.03;4961557;28;20067;-79
2021/12/12 04:06:57;;;;;;;10.27;3.85;;;;;;;5.70;77.36;100041.72;4957892;28;20027;-78
2021/12/12 04:09:22;;;;;;;11.63;4.13;;;;;;;5.74;77.14;100040.75;4960917;28;20039;-78
2021/12/12 04:11:55;;;;;;;17.52;6.35;;;;;;;5.70;77.91;100039.09;4961046;28;20126;-78
2021/12/12 04:14:23;;;;;;;15.50;4.75;;;;;;;5.67;78.10;100037.41;4980743;28;20043;-79
2021/12/12 04:16:52;;;;;;;15.90;4.50;;;;;;;5.65;78.47;100035.72;4962643;28;20031;-80
2021/12/12 04:19:18;;;;;;;9.95;3.90;;;;;;;5.65;79.10;100049.66;4961627;28;20047;-78
2021/12/12 04:21:44;;;;;;;12.57;4.45;;;;;;;5.60;79.25;100052.38;4971158;28;20060;-78
2021/12/12 04:24:11;;;;;;;9.07;4.93;;;;;;;5.59;79.59;100048.06;4947133;28;20039;-78
2021/12/12 04:26:42;;;;;;;8.45;3.70;;;;;;;5.55;80.07;100042.94;4940241;28;20031;-78
2021/12/12 04:29:15;;;;;;;12.10;4.28;;;;;;;5.52;80.45;100037.81;4944008;28;20067;-79
2021/12/12 04:31:45;;;;;;;7.75;3.90;;;;;;;5.54;80.79;100036.88;4963492;28;20043;-80
2021/12/12 04:34:12;;;;;;;11.38;4.97;;;;;;;5.53;80.68;100026.44;4966320;28;20095;-77
2021/12/12 04:36:41;;;;;;;13.07;4.43;;;;;;;5.50;81.43;100024.75;4969938;28;20042;-78
2021/12/12 04:39:14;;;;;;;7.93;3.58;;;;;;;5.52;81.78;100032.56;4970149;29;20042;-77
2021/12/12 04:41:41;;;;;;;9.50;4.35;;;;;;;5.52;81.72;100033.44;4953879;29;20071;-78
2021/12/12 04:44:07;;;;;;;11.98;4.70;;;;;;;5.50;82.22;100039.59;4953022;29;20070;-78
2021/12/12 04:49:55;;;;;;;19.23;4.45;;;;;;;5.45;82.20;100044.94;4954863;29;20050;-78
2021/12/12 04:52:20;;;;;;;11.27;4.30;;;;;;;5.36;82.58;100032.91;4964353;29;20098;-79
2021/12/12 04:54:53;;;;;;;6.55;3.53;;;;;;;5.37;82.97;100025.97;4951946;29;20042;-74
2021/12/12 04:57:26;;;;;;;12.65;5.03;;;;;;;5.35;82.88;100028.59;4950410;29;20043;-77
2021/12/12 04:59:59;;;;;;;12.68;4.35;;;;;;;5.37;83.50;100029.44;4953511;29;20487;-78
2021/12/12 05:02:31;;;;;;;9.50;3.80;;;;;;;5.38;83.18;100028.53;4953620;29;20043;-79
2021/12/12 05:05:06;;;;;;;15.63;4.60;;;;;;;5.38;82.76;100033.75;4957311;29;20043;-78
2021/12/12 05:07:37;;;;;;;13.43;4.05;;;;;;;5.33;82.77;100025.16;4964285;29;20031;-78
2021/12/12 05:10:11;;;;;;;7.63;3.40;;;;;;;5.36;83.18;100032.91;4955884;29;20158;-79
2021/12/12 05:12:51;;;;;;;7.43;3.88;;;;;;;5.36;83.29;100019.84;4956898;29;20087;-79
2021/12/12 05:15:28;;;;;;;12.63;3.53;;;;;;;5.36;83.14;100029.44;4958835;29;20053;-78
2021/12/12 05:18:02;;;;;;;6.70;3.20;;;;;;;5.36;83.65;100030.31;4960586;29;20636;-79
2021/12/12 05:20:42;;;;;;;6.82;3.47;;;;;;;5.35;83.74;100031.22;4939185;29;20051;-79
2021/12/12 05:23:12;;;;;;;9.07;3.55;;;;;;;5.32;83.89;100020.84;4956366;29;20046;-81
2021/12/12 05:25:48;;;;;;;8.27;3.38;;;;;;;5.35;84.05;100026.00;4959229;29;20031;-79
2021/12/12 05:28:22;;;;;;;5.03;3.15;;;;;;;5.36;84.00;100025.06;4944628;29;20055;-80
2021/12/12 05:30:48;;;;;;;5.85;2.63;;;;;;;5.36;83.55;100035.53;4962106;29;20093;-79
2021/12/12 05:33:15;;;;;;;4.80;3.10;;;;;;;5.38;83.87;100036.34;4955923;29;20035;-79
2021/12/12 05:35:42;;;;;;;4.88;2.88;;;;;;;5.42;83.86;100042.41;4957446;29;20039;-79
2021/12/12 05:38:08;;;;;;;5.13;2.53;;;;;;;5.44;83.78;100040.59;4957844;29;20042;-79
2021/12/12 05:40:38;;;;;;;4.95;2.70;;;;;;;5.47;84.24;100032.69;4924386;29;20046;-78
2021/12/12 05:43:04;;;;;;;6.38;2.33;;;;;;;5.48;83.93;100038.75;4958557;29;20043;-78
2021/12/12 05:45:32;;;;;;;7.32;2.95;;;;;;;5.52;83.85;100040.41;4964368;29;20043;-78
2021/12/12 05:47:58;;;;;;;5.15;1.95;;;;;;;5.53;83.79;100037.75;4947140;29;20035;-78
2021/12/12 05:50:25;;;;;;;5.25;3.00;;;;;;;5.56;83.60;100045.53;4960688;28;20047;-79
2021/12/12 05:52:54;;;;;;;4.82;2.20;;;;;;;5.56;83.84;100042.91;4974464;28;20081;-78
2021/12/12 05:55:22;;;;;;;4.00;2.83;;;;;;;5.63;83.86;100050.59;4960997;28;20038;-79
2021/12/12 05:57:54;;;;;;;7.30;2.33;;;;;;;5.63;84.73;100045.38;4983654;28;20039;-79
2021/12/12 06:00:26;;;;;;;3.47;2.03;;;;;;;5.65;83.95;100060.13;4979974;28;20042;-79
2021/12/12 06:02:52;;;;;;;4.25;2.00;;;;;;;5.68;84.27;100054.81;4972048;28;20031;-78
2021/12/12 06:05:17;;;;;;;2.80;1.90;;;;;;;5.69;84.07;100060.94;4973990;28;20045;-79
2021/12/12 06:07:43;;;;;;;7.60;2.17;;;;;;;5.72;84.36;100051.22;4986387;28;20096;-78
2021/12/12 06:10:12;;;;;;;6.03;2.35;;;;;;;5.67;84.45;100060.09;4979445;28;20106;-78
2021/12/12 06:12:40;;;;;;;2.38;1.45;;;;;;;5.68;85.15;100060.03;4984176;28;20158;-79
2021/12/12 06:15:09;;;;;;;3.03;1.77;;;;;;;5.68;85.23;100056.56;4979908;28;20030;-79
2021/12/12 06:17:36;;;;;;;2.90;1.60;;;;;;;5.70;85.19;100057.41;4978541;28;20407;-79
2021/12/12 06:20:04;;;;;;;3.00;2.17;;;;;;;5.69;85.73;100053.94;4974564;28;20132;-78
2021/12/12 06:22:30;;;;;;;2.45;1.50;;;;;;;5.70;85.63;100042.56;4973418;28;20041;-77
2021/12/12 06:24:55;;;;;;;3.78;2.10;;;;;;;5.74;85.12;100059.06;4972231;28;20039;-78
2021/12/12 06:27:22;;;;;;;1.67;1.58;;;;;;;5.76;85.53;100050.28;4951207;28;20035;-77
2021/12/12 06:29:51;;;;;;;1.65;1.23;;;;;;;5.80;85.56;100048.41;4957854;28;20042;-78
2021/12/12 06:32:18;;;;;;;3.33;1.40;;;;;;;5.80;85.51;100062.34;4980579;28;20094;-77
2021/12/12 06:34:44;;;;;;;2.67;1.42;;;;;;;5.84;85.95;100055.31;4979059;28;20035;-78
2021/12/12 06:37:10;;;;;;;1.70;1.10;;;;;;;5.86;85.85;100065.72;4978221;28;20039;-79
2021/12/12 06:39:36;;;;;;;2.38;1.35;;;;;;;5.89;85.74;100065.66;4958579;28;20050;-76
2021/12/12 06:42:05;;;;;;;1.75;1.20;;;;;;;5.88;85.58;100066.53;4973380;28;20063;-77
2021/12/12 06:44:32;;;;;;;6.47;3.78;;;;;;;5.89;86.32;100079.59;4956113;28;20414;-78
2021/12/12 06:46:59;;;;;;;1.52;1.30;;;;;;;5.93;85.88;100076.00;4955872;28;20446;-79
2021/12/12 06:49:25;;;;;;;1.90;1.30;;;;;;;5.96;85.70;100090.81;4964377;28;20038;-78
2021/12/12 06:51:55;;;;;;;1.88;1.30;;;;;;;5.95;86.15;100087.31;4980149;28;20039;-78
2021/12/12 06:54:23;;;;;;;2.10;1.10;;;;;;;5.94;86.42;100090.84;4978662;28;20030;-78
2021/12/12 06:56:53;;;;;;;1.30;1.10;;;;;;;5.98;85.99;100094.22;4977703;28;20058;-78
2021/12/12 06:59:22;;;;;;;2.33;1.08;;;;;;;6.00;86.08;100100.28;4978376;28;20030;-77
2021/12/12 07:01:50;;;;;;;1.05;0.90;;;;;;;6.04;85.88;100093.22;4975958;28;20521;-76
2021/12/12 07:04:18;;;;;;;1.05;0.90;;;;;;;6.06;85.73;100091.44;4958649;28;20038;-76
2021/12/12 07:06:45;;;;;;;1.25;0.90;;;;;;;6.07;85.75;100096.59;4990973;28;20038;-75
2021/12/12 07:09:11;;;;;;;1.90;1.17;;;;;;;6.11;85.50;100100.88;4992202;28;20042;-76
2021/12/12 07:11:40;;;;;;;2.80;1.13;;;;;;;6.13;85.20;100091.22;4990530;28;20043;-78
2021/12/12 07:14:07;;;;;;;8.05;2.47;;;;;;;6.16;85.21;100100.75;4991471;28;20186;-78
2021/12/12 07:16:33;;;;;;;1.88;1.10;;;;;;;6.16;85.43;100096.38;4990325;28;20019;-78
2021/12/12 07:18:59;;;;;;;1.42;1.10;;;;;;;6.16;85.42;100096.38;4969569;28;20103;-77
2021/12/12 07:21:27;;;;;;;1.58;1.08;;;;;;;6.17;85.09;100100.69;4977051;28;20039;-79
2021/12/12 07:23:54;;;;;;;1.38;1.10;;;;;;;6.19;85.37;100101.53;4955927;28;20035;-78
2021/12/12 07:26:24;;;;;;;0.88;0.88;;;;;;;6.21;85.42;100099.72;4959172;28;20416;-78
2021/12/12 07:28:55;;;;;;;2.63;1.58;;;;;;;6.21;85.20;100102.34;4975652;28;20030;-78
2021/12/12 07:31:25;;;;;;;0.80;0.80;;;;;;;6.23;85.11;100104.94;4974966;28;20066;-78
2021/12/12 07:33:53;;;;;;;1.10;1.00;;;;;;;6.24;85.37;100102.25;4979586;28;20054;-80
2021/12/12 07:36:20;;;;;;;0.80;0.80;;;;;;;6.27;85.25;100103.09;4985165;28;20026;-79
2021/12/12 07:38:55;;;;;;;2.88;1.00;;;;;;;6.28;85.37;100100.44;4986971;28;20031;-78
2021/12/12 07:41:24;;;;;;;1.20;1.08;;;;;;;6.32;85.17;100106.44;4974826;28;20085;-78
2021/12/12 07:43:50;;;;;;;1.90;1.00;;;;;;;6.33;84.94;100105.56;4974122;28;20058;-78
2021/12/12 07:46:18;;;;;;;2.35;1.35;;;;;;;6.35;84.92;100106.34;4967756;28;20379;-78
2021/12/12 07:48:46;;;;;;;1.77;1.08;;;;;;;6.38;84.77;100106.28;4971373;28;20035;-78
2021/12/12 07:51:12;;;;;;;2.10;0.85;;;;;;;6.37;84.97;100096.69;4961381;29;20127;-79
2021/12/12 07:53:37;;;;;;;1.25;1.00;;;;;;;6.41;84.61;100107.03;4955470;29;20075;-78
2021/12/12 07:56:03;;;;;;;0.80;0.80;;;;;;;6.37;84.78;100107.16;4952583;29;20054;-77
2021/12/12 07:58:29;;;;;;;2.35;1.00;;;;;;;6.43;84.97;100107.88;4952723;29;20034;-78
2021/12/12 08:00:57;;;;;;;1.58;0.90;;;;;;;6.45;84.63;100107.84;4951473;29;20031;-77
2021/12/12 08:03:27;;;;;;;4.07;1.00;;;;;;;6.44;84.78;100109.56;4954413;29;20062;-78
2021/12/12 08:05:53;;;;;;;1.35;1.00;;;;;;;6.46;84.76;100109.53;4937864;29;20513;-78
2021/12/12 08:08:20;;;;;;;1.42;1.08;;;;;;;6.49;84.88;100114.69;4957939;29;20126;-77
2021/12/12 08:10:49;;;;;;;2.60;1.00;;;;;;;6.50;84.57;100123.41;4939460;29;20039;-76
2021/12/12 08:13:15;;;;;;;2.78;1.33;;;;;;;6.53;84.91;100136.44;4971487;28;20046;-79
2021/12/12 08:15:41;;;;;;;1.63;0.90;;;;;;;6.52;84.62;100146.06;4985016;28;20482;-78
2021/12/12 08:18:09;;;;;;;0.90;0.90;;;;;;;6.57;84.65;100151.16;4987734;28;20050;-77
2021/12/12 08:20:36;;;;;;;1.92;0.80;;;;;;;6.61;84.45;100151.03;4989108;28;20113;-79
2021/12/12 08:23:02;;;;;;;1.45;1.02;;;;;;;6.63;84.05;100144.00;4984888;28;20035;-78
2021/12/12 08:25:29;;;;;;;1.38;1.10;;;;;;;6.63;84.86;100151.00;4961734;28;20042;-78
2021/12/12 08:28:00;;;;;;;0.90;0.90;;;;;;;6.65;84.21;100147.44;4947503;28;20030;-81
2021/12/12 08:30:26;;;;;;;4.25;2.50;;;;;;;6.64;84.31;100145.69;4959721;28;20443;-79
2021/12/12 08:32:51;;;;;;;2.22;1.30;;;;;;;6.66;84.21;100143.06;4959964;28;20035;-79
2021/12/12 08:35:19;;;;;;;1.08;0.98;;;;;;;6.72;83.97;100144.63;4954941;29;20035;-80
2021/12/12 08:37:48;;;;;;;1.95;1.00;;;;;;;6.68;84.21;100158.75;4957890;29;20047;-80
2021/12/12 08:40:18;;;;;;;2.33;1.00;;;;;;;6.72;84.14;100155.13;4948484;29;20035;-79
2021/12/12 08:42:48;;;;;;;1.27;1.02;;;;;;;6.76;84.01;100155.00;4949694;29;20019;-80
2021/12/12 08:45:16;;;;;;;1.02;0.93;;;;;;;6.80;83.81;100148.78;4946570;29;20039;-81
2021/12/12 08:47:42;;;;;;;1.95;1.30;;;;;;;6.85;83.59;100146.03;4931201;29;20035;-80
2021/12/12 08:50:12;;;;;;;1.65;1.10;;;;;;;6.88;83.48;100156.41;4963803;29;20038;-80
2021/12/12 08:52:40;;;;;;;1.98;1.30;;;;;;;6.93;83.46;100157.16;4939649;29;20035;-77
2021/12/12 08:55:15;;;;;;;3.95;2.10;;;;;;;6.96;83.68;100146.56;4952937;29;20507;-77
2021/12/12 08:57:52;;;;;;;6.85;1.55;;;;;;;6.96;83.26;100156.19;4929232;29;20110;-81
2021/12/12 09:00:22;;;;;;;1.88;1.40;;;;;;;7.00;83.30;100140.34;4963746;29;20035;-79
2021/12/12 09:02:48;;;;;;;1.77;1.10;;;;;;;7.06;83.36;100153.28;4964758;29;20181;-79
2021/12/12 09:05:17;;;;;;;3.60;1.50;;;;;;;7.09;82.66;100154.97;4950296;29;20035;-80
2021/12/12 09:07:47;;;;;;;1.58;1.00;;;;;;;7.09;82.77;100162.81;4966843;29;20031;-79
2021/12/12 09:10:25;;;;;;;1.83;1.30;;;;;;;7.07;83.03;100160.25;4937590;29;20027;-81
2021/12/12 09:13:06;;;;;;;3.08;1.90;;;;;;;7.08;82.70;100159.31;4938811;29;20103;-79
2021/12/12 09:15:31;;;;;;;2.03;1.25;;;;;;;7.07;82.88;100162.84;4933139;29;20071;-80
2021/12/12 09:18:02;;;;;;;1.85;1.40;;;;;;;7.09;82.61;100161.06;4960771;29;20046;-78
2021/12/12 09:20:47;;;;;;;2.08;1.60;;;;;;;7.14;82.70;100163.56;4954446;29;20431;-79
2021/12/12 09:23:39;;;;;;;4.07;1.30;;;;;;;7.17;82.49;100159.97;4955202;29;20034;-80
2021/12/12 09:26:06;;;;;;;1.85;1.35;;;;;;;7.15;82.54;100174.88;4952852;29;20116;-80
2021/12/12 09:28:38;;;;;;;2.13;1.42;;;;;;;7.19;82.53;100174.75;4952288;29;20212;-79
2021/12/12 09:31:12;;;;;;;2.75;1.50;;;;;;;7.26;82.28;100170.16;4952573;29;20051;-78
2021/12/12 09:33:49;;;;;;;4.13;1.30;;;;;;;7.35;82.03;100169.91;4956080;29;20032;-78
2021/12/12 09:36:18;;;;;;;5.47;1.77;;;;;;;7.37;81.99;100169.88;4955915;29;20043;-79
2021/12/12 09:39:03;;;;;;;4.30;2.17;;;;;;;7.45;81.86;100168.72;4964252;28;20068;-79
2021/12/12 09:41:51;;;;;;;2.47;1.85;;;;;;;7.51;81.88;100173.81;4964405;28;20058;-79
2021/12/12 09:45:11;;;;;;;3.63;1.40;;;;;;;7.52;81.36;100183.38;4974441;28;20019;-78
2021/12/12 09:51:29;;;;;;;1.88;1.38;;;;;;;7.59;81.61;100177.97;4999925;28;20403;-71
2021/12/12 09:54:18;;;;;;;3.22;2.10;;;;;;;7.66;81.83;100175.09;4972197;28;20050;-73
2021/12/12 09:57:05;;;;;;;1.45;1.20;;;;;;;7.70;81.44;100179.34;4959149;28;20027;-73
2021/12/12 09:59:41;;;;;;;5.82;2.38;;;;;;;7.76;81.05;100177.44;4948550;29;20038;-73
2021/12/12 10:02:28;;;;;;;3.60;1.98;;;;;;;7.80;81.53;100185.16;4951454;29;20051;-73
2021/12/12 10:05:24;;;;;;;3.92;2.08;;;;;;;7.86;81.24;100179.72;4959005;28;20035;-73
2021/12/12 10:07:55;;;;;;;3.70;2.17;;;;;;;7.89;80.78;100176.97;4967599;28;20043;-73
2021/12/12 10:10:33;;;;;;;4.22;1.52;;;;;;;7.97;80.72;100171.47;4971795;28;20031;-72
2021/12/12 10:13:11;;;;;;;3.90;1.60;;;;;;;8.02;80.67;100181.84;4972886;28;20086;-72
2021/12/12 10:15:45;;;;;;;4.53;2.00;;;;;;;8.05;80.55;100180.00;4972608;28;20495;-73
2021/12/12 10:18:39;;;;;;;3.17;1.48;;;;;;;8.10;80.43;100177.22;4958253;28;20039;-73
2021/12/12 10:21:28;;;;;;;4.60;2.40;;;;;;;8.08;80.51;100174.63;4967547;28;20509;-72
2021/12/12 10:24:27;;;;;;;5.95;1.88;;;;;;;8.08;80.51;100177.25;4973860;28;20042;-73
2021/12/12 10:27:15;;;;;;;2.92;1.58;;;;;;;8.10;80.60;100177.22;4970397;28;20050;-73
2021/12/12 10:30:05;;;;;;;5.57;1.85;;;;;;;8.12;81.15;100176.25;4961075;28;20578;-73
2021/12/12 10:33:09;;;;;;;4.22;2.05;;;;;;;8.18;80.82;100168.16;4967817;28;20062;-73
2021/12/12 10:35:45;;;;;;;3.97;1.83;;;;;;;8.25;80.83;100178.47;4969485;28;20042;-81
2021/12/12 10:38:44;;;;;;;5.82;1.90;;;;;;;8.24;80.47;100177.59;4972673;28;20042;-81
2021/12/12 10:41:10;;;;;;;4.97;1.98;;;;;;;8.25;80.80;100176.69;4947691;28;20043;-81
2021/12/12 10:43:42;;;;;;;2.80;1.70;;;;;;;8.31;80.42;100184.38;4956068;28;20042;-78
2021/12/12 10:46:16;;;;;;;3.15;2.03;;;;;;;8.34;80.91;100183.41;4949756;28;20043;-80
2021/12/12 10:49:17;;;;;;;5.05;1.70;;;;;;;8.35;81.08;100187.75;4984393;28;20121;-77
2021/12/12 10:51:54;;;;;;;4.93;2.55;;;;;;;8.36;81.22;100192.09;4941675;28;20039;-80
2021/12/12 10:54:28;;;;;;;5.72;2.95;;;;;;;8.44;81.71;100186.59;4949828;28;20066;-78
2021/12/12 10:57:07;;;;;;;5.15;2.20;;;;;;;8.41;82.50;100184.09;4965744;28;20034;-81
2021/12/12 10:59:42;;;;;;;6.05;2.83;;;;;;;8.35;82.94;100190.38;4974582;28;20030;-80
2021/12/12 11:02:16;;;;;;;2.33;1.75;;;;;;;8.31;83.33;100191.38;4970546;28;20038;-79
2021/12/12 11:05:10;;;;;;;7.10;2.05;;;;;;;8.41;83.38;100187.56;4970119;28;20117;-81
2021/12/12 11:07:53;;;;;;;2.70;1.67;;;;;;;8.40;82.63;100187.66;4968546;28;20049;-78
2021/12/12 11:10:27;;;;;;;6.13;2.20;;;;;;;8.41;83.54;100195.44;4961316;28;20046;-79
2021/12/12 11:12:52;;;;;;;6.43;2.38;;;;;;;8.50;82.59;100194.31;4963136;28;20117;-79
2021/12/12 11:15:31;;;;;;;3.13;2.08;;;;;;;8.44;82.98;100192.75;4973123;28;20031;-79
2021/12/12 11:18:02;;;;;;;4.35;2.47;;;;;;;8.46;82.91;100192.69;4972872;28;20140;-80
2021/12/12 11:20:44;;;;;;;4.00;2.65;;;;;;;8.48;83.10;100201.38;4970422;28;20067;-78
2021/12/12 11:23:25;;;;;;;2.90;2.53;;;;;;;8.50;83.19;100200.41;4968876;28;20039;-79
2021/12/12 11:26:06;;;;;;;3.15;2.03;;;;;;;8.47;83.55;100191.78;4970823;28;20034;-80
2021/12/12 11:28:48;;;;;;;4.38;2.58;;;;;;;8.50;83.59;100192.53;4970282;28;20720;-78
2021/12/12 11:31:19;;;;;;;3.50;2.25;;;;;;;8.55;83.00;100190.59;4964971;28;20564;-77
2021/12/12 11:33:48;;;;;;;4.93;2.17;;;;;;;8.57;83.26;100198.44;4964435;28;20035;-78
2021/12/12 11:36:18;;;;;;;2.45;1.55;;;;;;;8.64;83.44;100194.69;4963601;28;20039;-78
2021/12/12 11:39:01;;;;;;;2.72;1.75;;;;;;;8.64;83.88;100197.31;4965971;28;20357;-79
2021/12/12 11:41:46;;;;;;;4.53;2.17;;;;;;;8.60;83.65;100201.81;4968601;28;20506;-81
2021/12/12 11:44:17;;;;;;;4.55;2.63;;;;;;;8.63;83.45;100195.59;4967389;28;20046;-77
2021/12/12 11:46:50;;;;;;;2.75;1.67;;;;;;;8.62;83.95;100198.28;4974575;28;20046;-80
2021/12/12 11:49:19;;;;;;;3.08;2.00;;;;;;;8.58;84.31;100201.00;4958234;28;20593;-79
2021/12/12 11:51:55;;;;;;;4.90;2.35;;;;;;;8.58;83.57;100195.72;4972755;28;20043;-79
2021/12/12 11:54:51;;;;;;;2.78;1.75;;;;;;;8.58;84.32;100189.63;4971687;28;20122;-78
2021/12/12 11:57:27;;;;;;;5.15;2.10;;;;;;;8.60;84.26;100198.31;4965785;28;20041;-77
2021/12/12 11:59:55;;;;;;;2.60;1.88;;;;;;;8.57;83.60;100194.03;4971242;28;20654;-79
2021/12/12 12:02:31;;;;;;;1.98;1.58;;;;;;;8.52;84.69;100206.47;4971734;28;20106;-81
2021/12/12 12:05:15;;;;;;;2.08;1.63;;;;;;;8.57;84.35;100207.16;4975431;28;20038;-79
2021/12/12 12:07:50;;;;;;;2.10;1.45;;;;;;;8.56;84.19;100207.22;4957718;28;20035;-82
2021/12/12 12:10:40;;;;;;;2.30;1.70;;;;;;;8.53;84.54;100212.56;4970643;28;20126;-80
2021/12/12 12:13:32;;;;;;;4.38;2.13;;;;;;;8.52;84.69;100213.50;4970296;28;20074;-78
2021/12/12 12:16:03;;;;;;;2.70;1.50;;;;;;;8.44;84.79;100207.63;4971611;28;20066;-78